Time;durP1;ratioP1;P1;durP2;ratioP2;P2;SDS_P1;SDS_P2;PMS_P1;PMS_P2;Temp;Humidity;BMP_temperature;BMP_pressure;BME280_temperature;BME280_humidity;BME280_pressure;Samples;Min_cycle;Max_cycle;Signal;HPM_P1;HPM_P2
2021/10/28 00:13:12;;;;;;;17.85;15.10;;;10.90;99.90;;;;;;5007698;28;20077;-77
2021/10/28 00:15:58;;;;;;;16.30;14.70;;;10.90;99.90;;;;;;5002200;28;20033;-83
2021/10/28 00:18:48;;;;;;;16.75;14.95;;;10.80;99.90;;;;;;5001324;28;20030;-82
2021/10/28 00:21:37;;;;;;;16.38;14.52;;;10.80;99.90;;;;;;4999633;28;20040;-78
2021/10/28 00:24:21;;;;;;;19.55;15.15;;;10.70;99.90;;;;;;4985210;28;20138;-80
2021/10/28 00:27:06;;;;;;;16.20;14.50;;;10.80;99.90;;;;;;4987094;28;20080;-81
2021/10/28 00:29:50;;;;;;;15.82;14.02;;;10.80;99.90;;;;;;4987313;28;20045;-82
2021/10/28 00:32:34;;;;;;;17.42;15.48;;;10.80;99.90;;;;;;4973250;28;20093;-81
2021/10/28 00:35:18;;;;;;;16.35;14.50;;;10.80;99.90;;;;;;4985990;28;20081;-78
2021/10/28 00:38:06;;;;;;;16.08;14.48;;;10.70;99.90;;;;;;5000185;28;20065;-77
2021/10/28 00:40:50;;;;;;;15.88;14.25;;;10.70;99.90;;;;;;4973220;28;20053;-82
2021/10/28 00:43:42;;;;;;;15.52;13.63;;;10.70;99.90;;;;;;4984997;28;20398;-80
2021/10/28 00:46:31;;;;;;;15.95;13.30;;;10.60;99.90;;;;;;4998957;28;20077;-77
2021/10/28 00:49:15;;;;;;;15.50;12.82;;;10.50;99.90;;;;;;4986383;28;20041;-81
2021/10/28 00:51:59;;;;;;;14.98;13.25;;;10.50;99.90;;;;;;4984846;28;20509;-76
2021/10/28 00:54:44;;;;;;;14.63;12.35;;;10.50;99.90;;;;;;4985038;28;20048;-80
2021/10/28 00:57:31;;;;;;;15.57;12.73;;;10.60;99.90;;;;;;4974368;28;20112;-81
2021/10/28 01:00:16;;;;;;;13.82;11.88;;;10.60;99.90;;;;;;4980282;28;20042;-81
2021/10/28 01:03:00;;;;;;;14.98;13.05;;;10.60;99.90;;;;;;4993291;28;20049;-77
2021/10/28 01:05:45;;;;;;;13.52;12.23;;;10.40;99.90;;;;;;4997189;28;20140;-77
2021/10/28 01:08:30;;;;;;;20.10;15.05;;;10.40;99.90;;;;;;4984143;28;20037;-80
2021/10/28 01:11:14;;;;;;;16.85;14.82;;;10.40;99.90;;;;;;5001463;28;20496;-81
2021/10/28 01:13:59;;;;;;;17.48;13.70;;;10.30;99.90;;;;;;4999863;28;20406;-80
2021/10/28 01:16:44;;;;;;;13.65;11.77;;;10.40;99.90;;;;;;4998996;28;20044;-79
2021/10/28 01:19:28;;;;;;;11.73;10.53;;;10.30;99.90;;;;;;5000804;28;20090;-76
2021/10/28 01:22:13;;;;;;;13.98;11.27;;;10.30;99.90;;;;;;4997899;28;20033;-76
2021/10/28 01:24:57;;;;;;;12.55;11.15;;;10.30;99.90;;;;;;4971973;28;20053;-78
2021/10/28 01:27:41;;;;;;;13.07;11.57;;;10.20;99.90;;;;;;5000125;28;20034;-78
2021/10/28 01:30:26;;;;;;;13.00;10.80;;;10.20;99.90;;;;;;5003003;28;20058;-79
2021/10/28 01:33:10;;;;;;;;;;;10.20;99.90;;;;;;4987796;28;20114;-81
2021/10/28 01:35:55;;;;;;;11.30;10.20;;;10.20;99.90;;;;;;4998900;28;20013;-79
2021/10/28 01:38:42;;;;;;;13.05;11.35;;;10.20;99.90;;;;;;5000251;28;20045;-80
2021/10/28 01:41:28;;;;;;;12.10;10.88;;;10.10;99.90;;;;;;4972261;28;20093;-81
2021/10/28 01:44:12;;;;;;;12.63;11.32;;;10.10;99.90;;;;;;4999130;28;20040;-79
2021/10/28 01:46:57;;;;;;;13.63;10.68;;;10.20;99.90;;;;;;4998250;28;20096;-79
2021/10/28 01:49:40;;;;;;;13.68;11.27;;;10.20;99.90;;;;;;4969866;28;20041;-79
2021/10/28 01:52:25;;;;;;;11.93;10.57;;;10.20;99.90;;;;;;4997559;28;20044;-79
2021/10/28 01:55:11;;;;;;;13.40;12.00;;;10.20;99.90;;;;;;4999389;28;20042;-80
2021/10/28 01:57:56;;;;;;;12.95;11.27;;;10.20;99.90;;;;;;4971122;28;20045;-80
2021/10/28 02:00:41;;;;;;;12.53;11.23;;;10.20;99.90;;;;;;4998375;28;20041;-79
2021/10/28 02:03:26;;;;;;;11.80;10.60;;;10.20;99.90;;;;;;5000105;28;20050;-80
2021/10/28 02:06:10;;;;;;;13.05;11.68;;;10.20;99.90;;;;;;4984458;28;20030;-79
2021/10/28 02:08:54;;;;;;;12.45;11.13;;;10.20;99.90;;;;;;4971026;28;20056;-79
2021/10/28 02:11:39;;;;;;;12.18;10.93;;;10.20;99.90;;;;;;4984313;28;20102;-79
2021/10/28 02:14:23;;;;;;;13.00;11.60;;;10.10;99.90;;;;;;4985203;28;20061;-80
2021/10/28 02:17:07;;;;;;;12.93;11.57;;;10.10;99.90;;;;;;4970858;28;20085;-79
2021/10/28 02:19:51;;;;;;;13.35;11.50;;;10.10;99.90;;;;;;4983780;28;20050;-79
2021/10/28 02:22:36;;;;;;;12.70;11.43;;;10.20;99.90;;;;;;4973077;28;20467;-80
2021/10/28 02:25:21;;;;;;;15.20;12.18;;;10.10;99.90;;;;;;4984483;28;20041;-80
2021/10/28 02:28:05;;;;;;;13.47;11.47;;;10.10;99.90;;;;;;4984341;28;20045;-79
2021/10/28 02:30:49;;;;;;;14.77;13.20;;;10.10;99.90;;;;;;4983899;28;20061;-80
2021/10/28 02:33:33;;;;;;;13.90;12.50;;;10.10;99.90;;;;;;4970162;28;20120;-80
2021/10/28 02:36:17;;;;;;;14.63;12.02;;;10.00;99.90;;;;;;4999002;28;20050;-80
2021/10/28 02:39:02;;;;;;;12.98;11.57;;;10.00;99.90;;;;;;4970009;28;20168;-79
2021/10/28 02:41:46;;;;;;;13.98;12.40;;;10.00;99.90;;;;;;4969362;28;20590;-79
2021/10/28 02:44:30;;;;;;;14.52;12.77;;;10.00;99.90;;;;;;4982823;28;20117;-80
2021/10/28 02:47:15;;;;;;;;;;;10.00;99.90;;;;;;4999081;28;20048;-80
2021/10/28 02:49:59;;;;;;;14.38;12.85;;;10.00;99.90;;;;;;4983131;28;19912;-76
2021/10/28 02:52:44;;;;;;;16.30;13.52;;;10.00;99.90;;;;;;4983942;28;20089;-76
2021/10/28 02:55:28;;;;;;;15.30;13.70;;;10.00;99.90;;;;;;4984022;28;20045;-75
2021/10/28 02:58:12;;;;;;;17.38;13.40;;;10.00;99.90;;;;;;4982566;28;20118;-76
2021/10/28 03:00:57;;;;;;;15.75;14.15;;;10.00;99.90;;;;;;5000254;28;20164;-77
2021/10/28 03:03:42;;;;;;;24.40;20.25;;;10.00;99.90;;;;;;5021124;28;20064;-76
2021/10/28 03:06:26;;;;;;;39.40;29.25;;;9.90;99.90;;;;;;5002792;28;20037;-76
2021/10/28 03:09:15;;;;;;;18.63;15.55;;;10.00;99.90;;;;;;5014782;28;20541;-76
2021/10/28 03:12:00;;;;;;;16.58;13.98;;;10.00;99.90;;;;;;5017566;28;20048;-78
2021/10/28 03:14:52;;;;;;;14.77;13.18;;;9.80;99.90;;;;;;5002406;28;20072;-80
2021/10/28 03:26:45;;;;;;;23.08;19.40;;;9.90;99.90;;;;;;5016424;28;20068;-80
2021/10/28 03:29:29;;;;;;;22.97;19.10;;;9.80;99.90;;;;;;5002406;28;20088;-81
2021/10/28 03:32:14;;;;;;;17.23;14.80;;;9.80;99.90;;;;;;4992392;28;20083;-79
2021/10/28 03:34:59;;;;;;;14.63;13.13;;;9.80;99.90;;;;;;5020518;28;20100;-80
2021/10/28 03:37:55;;;;;;;15.93;14.23;;;9.80;99.90;;;;;;5020488;28;20036;-81
2021/10/28 03:41:07;;;;;;;14.82;13.30;;;9.80;99.90;;;;;;5008155;28;20089;-80
2021/10/28 03:53:00;;;;;;;15.48;12.70;;;9.70;99.90;;;;;;5019264;28;20030;-80
2021/10/28 04:19:36;;;;;;;18.55;15.48;;;9.40;99.90;;;;;;5008132;28;20048;-80
2021/10/28 04:31:32;;;;;;;18.73;13.85;;;9.30;99.90;;;;;;4997190;28;20092;-80
2021/10/28 04:34:17;;;;;;;17.10;14.55;;;9.30;99.90;;;;;;5022131;28;20099;-81
2021/10/28 04:37:02;;;;;;;;;;;9.30;99.90;;;;;;4994571;28;20092;-81
2021/10/28 04:39:47;;;;;;;17.98;13.77;;;9.30;99.90;;;;;;5035735;28;19904;-81
2021/10/28 04:42:31;;;;;;;17.75;13.70;;;9.30;99.90;;;;;;5016913;28;20052;-80
2021/10/28 04:45:15;;;;;;;15.38;13.77;;;9.30;99.90;;;;;;5005962;28;20041;-82
2021/10/28 04:47:59;;;;;;;14.37;12.87;;;9.40;99.90;;;;;;5004492;28;20048;-83
2021/10/28 04:50:43;;;;;;;13.57;12.17;;;9.30;99.90;;;;;;4991032;28;20516;-81
2021/10/28 04:53:28;;;;;;;14.02;12.57;;;9.30;99.90;;;;;;4989463;28;20041;-81
2021/10/28 04:56:13;;;;;;;;;;;9.30;99.90;;;;;;4992070;28;20049;-81
2021/10/28 04:58:57;;;;;;;15.15;12.57;;;9.20;99.90;;;;;;5005553;28;19952;-81
2021/10/28 05:01:41;;;;;;;15.70;12.57;;;9.20;99.90;;;;;;4992171;28;20033;-82
2021/10/28 05:04:26;;;;;;;12.70;11.40;;;9.20;99.90;;;;;;4991277;28;20045;-83
2021/10/28 05:07:10;;;;;;;13.30;11.70;;;9.20;99.90;;;;;;4989710;28;20041;-82
2021/10/28 05:09:54;;;;;;;15.38;12.80;;;9.20;99.90;;;;;;4994193;28;20093;-81
2021/10/28 05:12:38;;;;;;;14.20;12.25;;;9.20;99.90;;;;;;4992123;28;20045;-81
2021/10/28 05:15:22;;;;;;;13.30;11.93;;;9.10;99.90;;;;;;5002716;28;20121;-81
2021/10/28 05:18:08;;;;;;;13.23;11.85;;;9.10;99.90;;;;;;4988158;28;20421;-82
2021/10/28 05:20:53;;;;;;;15.00;12.38;;;9.20;99.90;;;;;;5023238;28;20044;-81
2021/10/28 05:23:38;;;;;;;;;;;9.10;99.90;;;;;;5004497;28;20452;-80
2021/10/28 05:26:22;;;;;;;;;;;9.10;99.90;;;;;;4994409;28;20350;-83
2021/10/28 05:29:06;;;;;;;;;;;9.10;99.90;;;;;;5001193;28;19972;-77
2021/10/28 05:31:51;;;;;;;;;;;9.00;99.90;;;;;;5001305;28;19920;-78
2021/10/28 05:34:37;;;;;;;;;;;9.00;99.90;;;;;;4985305;28;19928;-79
2021/10/28 05:37:21;;;;;;;;;;;9.00;99.90;;;;;;4986491;28;19917;-78
2021/10/28 05:40:05;;;;;;;;;;;9.00;99.90;;;;;;4992185;28;19994;-78
2021/10/28 05:42:51;;;;;;;;;;;9.00;99.90;;;;;;4987012;28;19972;-77
2021/10/28 05:45:36;;;;;;;;;;;9.00;99.90;;;;;;4990160;28;19932;-78
2021/10/28 05:48:21;;;;;;;;;;;9.00;99.90;;;;;;4987042;28;20040;-79
2021/10/28 05:51:05;;;;;;;;;;;9.10;99.90;;;;;;5000973;28;19980;-82
2021/10/28 05:53:50;;;;;;;;;;;9.10;99.90;;;;;;4986663;28;19940;-81
2021/10/28 05:56:34;;;;;;;;;;;9.10;99.90;;;;;;4986899;28;20273;-78
2021/10/28 05:59:18;;;;;;;;;;;9.10;99.90;;;;;;4998153;28;19916;-78
2021/10/28 06:02:03;;;;;;;;;;;9.10;99.90;;;;;;4999378;28;20004;-79
2021/10/28 06:04:47;;;;;;;;;;;9.00;99.90;;;;;;4989110;28;19917;-82
2021/10/28 06:07:32;;;;;;;;;;;9.00;99.90;;;;;;5002334;28;19960;-81
2021/10/28 06:10:17;;;;;;;;;;;9.00;99.90;;;;;;5001509;28;19913;-82
2021/10/28 06:13:04;;;;;;;;;;;9.10;99.90;;;;;;5000485;28;19913;-82
2021/10/28 06:15:49;;;;;;;;;;;9.10;99.90;;;;;;5003350;28;19916;-83
2021/10/28 06:21:23;;;;;;;;;;;9.10;99.90;;;;;;5024825;28;19971;-79
2021/10/28 06:24:07;;;;;;;;;;;9.10;99.90;;;;;;5025583;28;19939;-80
2021/10/28 06:26:51;;;;;;;;;;;9.10;99.90;;;;;;5024475;28;19916;-81
2021/10/28 06:29:35;;;;;;;;;;;9.20;99.90;;;;;;5025532;28;19958;-81
2021/10/28 06:32:21;;;;;;;;;;;9.10;99.90;;;;;;5038405;28;19976;-80
2021/10/28 06:35:05;;;;;;;;;;;9.10;99.90;;;;;;5024347;28;19920;-80
2021/10/28 06:37:50;;;;;;;;;;;9.10;99.90;;;;;;5025957;28;19963;-79
2021/10/28 06:40:36;;;;;;;;;;;9.10;99.90;;;;;;5010972;28;19932;-79
2021/10/28 06:43:21;;;;;;;;;;;9.20;99.90;;;;;;5024777;28;19919;-79
2021/10/28 06:46:05;;;;;;;;;;;9.30;99.90;;;;;;5009275;28;19916;-80
2021/10/28 06:48:49;;;;;;;;;;;9.30;99.90;;;;;;5010049;28;19975;-80
2021/10/28 06:51:40;;;;;;;;;;;9.30;99.90;;;;;;5023741;28;19912;-80
2021/10/28 06:54:34;;;;;;;;;;;9.30;99.90;;;;;;5024111;28;19959;-80
2021/10/28 07:03:07;;;;;;;;;;;9.30;99.90;;;;;;5025876;28;20291;-78
2021/10/28 07:05:51;;;;;;;;;;;9.30;99.90;;;;;;5011272;28;19963;-80
2021/10/28 07:08:38;;;;;;;;;;;9.40;99.90;;;;;;5026874;28;20307;-80
2021/10/28 07:11:27;;;;;;;;;;;9.40;99.90;;;;;;5027239;28;19959;-81
2021/10/28 07:14:11;;;;;;;;;;;9.40;99.90;;;;;;5025610;28;19951;-81
2021/10/28 07:34:06;;;;;;;;;;;9.40;99.90;;;;;;5041858;28;20023;-81
2021/10/28 07:55:00;;;;;;;;;;;9.40;99.90;;;;;;5045469;28;19912;-80
2021/10/28 08:13:34;;;;;;;;;;;10.30;99.90;;;;;;5027630;28;19962;-77
2021/10/28 08:19:46;;;;;;;;;;;10.40;99.90;;;;;;5024276;28;19915;-76
2021/10/28 08:28:41;;;;;;;;;;;10.50;99.90;;;;;;5004011;28;20372;-79
2021/10/28 08:31:21;;;;;;;;;;;10.70;99.90;;;;;;5015038;28;20373;-75
2021/10/28 08:34:05;;;;;;;;;;;10.80;99.90;;;;;;4995646;28;19946;-80
2021/10/28 08:36:52;;;;;;;;;;;10.90;99.90;;;;;;4992715;28;19968;-81
2021/10/28 08:39:36;;;;;;;;;;;11.00;99.90;;;;;;5024029;28;19935;-80
2021/10/28 08:42:22;;;;;;;;;;;11.20;99.90;;;;;;5018036;28;19916;-80
2021/10/28 08:45:06;;;;;;;;;;;11.20;99.90;;;;;;5006020;28;19956;-81
2021/10/28 08:47:57;;;;;;;;;;;11.40;99.90;;;;;;4996156;28;19925;-75
2021/10/28 08:50:49;;;;;;;;;;;11.50;99.90;;;;;;4986402;28;19917;-80
2021/10/28 08:53:50;;;;;;;;;;;11.50;99.90;;;;;;4985888;28;19931;-80
2021/10/28 08:59:56;;;;;;;;;;;11.70;99.90;;;;;;5030268;28;19913;-77
2021/10/28 09:24:37;;;;;;;;;;;12.10;99.70;;;;;;5010338;28;20007;-76
2021/10/28 09:27:25;;;;;;;;;;;12.20;99.50;;;;;;5005206;28;20430;-75
2021/10/28 09:30:30;;;;;;;;;;;12.30;99.10;;;;;;5031896;28;19916;-79
2021/10/28 09:33:42;;;;;;;;;;;12.30;99.20;;;;;;5021274;28;20320;-81
2021/10/28 09:45:56;;;;;;;;;;;12.80;98.50;;;;;;5007479;28;20392;-79
2021/10/28 09:51:47;;;;;;;;;;;12.80;98.80;;;;;;5018740;28;19915;-76
2021/10/28 10:00:35;;;;;;;;;;;13.00;98.30;;;;;;5006493;28;19932;-75
2021/10/28 10:03:23;;;;;;;;;;;13.00;98.20;;;;;;5004337;28;19921;-78
2021/10/28 10:06:14;;;;;;;;;;;13.00;98.20;;;;;;5003602;28;19920;-76
2021/10/28 10:08:59;;;;;;;;;;;13.10;98.20;;;;;;5020365;28;20345;-83
2021/10/28 10:11:43;;;;;;;;;;;13.30;97.90;;;;;;5007591;28;19916;-78
2021/10/28 10:14:27;;;;;;;;;;;13.60;99.60;;;;;;4992003;28;20452;-82
2021/10/28 10:17:12;;;;;;;;;;;13.90;98.90;;;;;;5008498;28;19916;-82
2021/10/28 10:19:57;;;;;;;;;;;14.20;98.00;;;;;;5010208;28;19951;-85
2021/10/28 10:29:13;;;;;;;;;;;14.60;96.40;;;;;;5014463;28;19956;-81
2021/10/28 11:31:42;;;;;;;;;;;15.30;93.90;;;;;;4998386;28;19917;-85
2021/10/28 12:23:50;;;;;;;;;;;16.30;92.00;;;;;;5022552;28;20435;-83
2021/10/28 12:46:00;;;;;;;;;;;17.30;90.50;;;;;;5024888;28;19928;-83
2021/10/28 12:52:06;;;;;;;;;;;17.70;89.70;;;;;;5021454;28;19964;-81
2021/10/28 12:55:35;;;;;;;;;;;17.80;89.30;;;;;;5022224;28;19960;-79
2021/10/28 13:48:03;;;;;;;;;;;19.30;81.20;;;;;;5030738;28;20285;-83
2021/10/28 13:51:11;;;;;;;;;;;19.80;78.30;;;;;;5040985;28;20285;-77
2021/10/28 13:54:27;;;;;;;;;;;20.00;78.00;;;;;;5030608;28;19896;-82
2021/10/28 14:31:41;;;;;;;;;;;25.00;63.40;;;;;;5012769;28;19928;-81
2021/10/28 15:02:29;;;;;;;;;;;18.40;75.90;;;;;;4999006;28;19994;-81
2021/10/28 15:29:38;;;;;;;;;;;16.70;81.20;;;;;;5014505;28;19904;-79
2021/10/28 15:35:32;;;;;;;;;;;16.60;81.50;;;;;;5025753;28;19921;-81
2021/10/28 15:38:42;;;;;;;;;;;16.50;81.70;;;;;;5008853;28;19913;-78
2021/10/28 16:23:24;;;;;;;;;;;15.40;88.00;;;;;;5041247;28;19963;-77
2021/10/28 16:26:09;;;;;;;;;;;15.10;89.10;;;;;;5025547;28;19916;-79
2021/10/28 16:28:53;;;;;;;;;;;15.10;89.50;;;;;;5028621;28;20317;-76
2021/10/28 16:31:38;;;;;;;;;;;15.00;90.20;;;;;;5014326;28;20380;-81
2021/10/28 16:34:24;;;;;;;;;;;14.90;90.40;;;;;;5028388;28;19916;-78
2021/10/28 16:37:08;;;;;;;;;;;14.90;90.60;;;;;;5013401;28;19916;-79
2021/10/28 16:39:53;;;;;;;;;;;14.90;90.80;;;;;;5043506;28;19971;-82
2021/10/28 16:42:37;;;;;;;;;;;14.90;90.90;;;;;;5027438;28;20296;-83
2021/10/28 16:45:21;;;;;;;;;;;14.80;91.10;;;;;;5027680;28;19951;-78
2021/10/28 16:48:06;;;;;;;;;;;14.80;91.30;;;;;;5026763;28;19935;-80
2021/10/28 16:50:51;;;;;;;;;;;14.80;91.50;;;;;;5039950;28;19928;-77
2021/10/28 16:53:35;;;;;;;;;;;14.70;91.60;;;;;;5025645;28;19971;-77
2021/10/28 16:56:19;;;;;;;;;;;14.70;91.90;;;;;;5022547;28;19912;-79
2021/10/28 16:59:04;;;;;;;;;;;14.60;92.10;;;;;;5016113;28;20376;-85
2021/10/28 17:01:53;;;;;;;;;;;14.70;92.60;;;;;;4995973;28;19916;-82
2021/10/28 17:04:37;;;;;;;;;;;14.70;92.60;;;;;;4997606;28;19916;-81
2021/10/28 17:07:21;;;;;;;;;;;14.60;92.60;;;;;;4995962;28;19916;-79
2021/10/28 17:10:06;;;;;;;;;;;14.50;93.10;;;;;;4993873;28;19920;-78
2021/10/28 17:12:50;;;;;;;;;;;14.50;93.20;;;;;;5010638;28;19931;-81
2021/10/28 17:15:34;;;;;;;;;;;14.50;93.40;;;;;;5011236;28;19916;-81
2021/10/28 17:18:19;;;;;;;;;;;14.40;93.50;;;;;;5007266;28;19997;-78
2021/10/28 17:21:05;;;;;;;;;;;14.40;93.40;;;;;;5021946;28;19965;-80
2021/10/28 17:23:58;;;;;;;;;;;14.30;93.60;;;;;;4991848;28;19921;-79
2021/10/28 17:26:42;;;;;;;;;;;14.20;93.90;;;;;;4994612;28;19917;-81
2021/10/28 17:29:27;;;;;;;;;;;14.20;94.10;;;;;;4991466;28;19936;-78
2021/10/28 17:32:11;;;;;;;;;;;14.20;94.30;;;;;;5004026;28;19916;-79
2021/10/28 17:34:57;;;;;;;;;;;14.20;94.50;;;;;;5019684;28;20389;-81
2021/10/28 17:37:41;;;;;;;;;;;14.20;94.70;;;;;;5008946;28;19963;-81
2021/10/28 17:40:25;;;;;;;;;;;14.30;94.50;;;;;;5008242;28;19959;-81
2021/10/28 17:43:11;;;;;;;;;;;14.30;94.50;;;;;;4995020;28;19921;-81
2021/10/28 17:45:57;;;;;;;;;;;14.20;94.60;;;;;;5006781;28;20329;-83
2021/10/28 17:48:41;;;;;;;;;;;14.20;94.60;;;;;;5006516;28;19951;-83
2021/10/28 17:51:26;;;;;;;;;;;14.10;94.80;;;;;;5005532;28;19956;-81
2021/10/28 17:54:11;;;;;;;;;;;14.00;94.80;;;;;;5005200;28;19972;-80
2021/10/28 17:56:55;;;;;;;;;;;13.80;94.90;;;;;;5010154;28;20003;-80
2021/10/28 17:59:44;;;;;;;;;;;13.90;94.90;;;;;;5007559;28;19928;-82
2021/10/28 18:02:28;;;;;;;;;;;13.80;94.70;;;;;;5006401;28;19915;-83
2021/10/28 18:05:13;;;;;;;;;;;13.70;94.70;;;;;;5006393;28;19920;-85
2021/10/28 18:07:59;;;;;;;;;;;13.70;94.60;;;;;;5020498;28;19920;-79
2021/10/28 18:10:46;;;;;;;;;;;13.70;94.50;;;;;;5009255;28;19896;-80
2021/10/28 18:13:30;;;;;;;;;;;13.60;94.10;;;;;;5018541;28;19931;-83
2021/10/28 18:16:15;;;;;;;;;;;13.60;93.90;;;;;;5004613;28;20332;-78
2021/10/28 18:18:59;;;;;;;;;;;13.60;93.80;;;;;;5019997;28;19921;-82
2021/10/28 18:21:47;;;;;;;;;;;13.60;93.80;;;;;;5007132;28;19973;-83
2021/10/28 18:24:32;;;;;;;;;;;13.60;94.10;;;;;;5021670;28;19913;-84
2021/10/28 18:27:16;;;;;;;;;;;13.60;93.60;;;;;;5008592;28;19912;-82
2021/10/28 18:30:01;;;;;;;;;;;13.50;93.60;;;;;;5020655;28;19950;-83
2021/10/28 18:32:45;;;;;;;;;;;13.50;94.00;;;;;;5020813;28;19971;-84
2021/10/28 18:35:29;;;;;;;;;;;13.40;93.80;;;;;;4986973;28;19972;-79
2021/10/28 18:38:14;;;;;;;;;;;13.40;93.70;;;;;;4979638;28;19917;-79
2021/10/28 18:40:58;;;;;;;;;;;13.40;93.80;;;;;;4973078;28;19937;-82
2021/10/28 18:43:43;;;;;;;;;;;13.40;93.70;;;;;;4984719;28;19932;-79
2021/10/28 18:46:27;;;;;;;;;;;13.30;93.90;;;;;;4987857;28;19936;-80
2021/10/28 18:49:11;;;;;;;;;;;13.30;93.90;;;;;;5007634;28;19956;-79
2021/10/28 18:51:55;;;;;;;;;;;13.30;93.90;;;;;;4991855;28;19944;-84
2021/10/28 18:54:40;;;;;;;;;;;13.20;94.00;;;;;;5009447;28;19980;-84
2021/10/28 18:57:24;;;;;;;;;;;13.10;94.10;;;;;;5002081;28;19936;-80
2021/10/28 19:00:09;;;;;;;;;;;13.10;94.00;;;;;;5012478;28;19912;-84
2021/10/28 19:02:53;;;;;;;;;;;13.10;94.10;;;;;;5012224;28;19932;-79
2021/10/28 19:05:38;;;;;;;;;;;13.10;94.20;;;;;;4999065;28;19921;-83
2021/10/28 19:08:23;;;;;;;;;;;13.00;94.20;;;;;;5011497;28;19913;-79
2021/10/28 19:11:09;;;;;;;;;;;13.00;94.10;;;;;;5004202;28;19928;-83
2021/10/28 19:13:55;;;;;;;;;;;13.00;94.30;;;;;;4995527;28;19913;-77
2021/10/28 19:16:39;;;;;;;;;;;13.00;94.40;;;;;;4992872;28;19932;-79
2021/10/28 19:19:24;;;;;;;;;;;12.80;94.60;;;;;;4993462;28;19956;-79
2021/10/28 19:22:09;;;;;;;;;;;12.80;94.70;;;;;;4994509;28;19921;-83
2021/10/28 19:24:53;;;;;;;;;;;12.70;95.10;;;;;;4994252;28;19912;-80
2021/10/28 19:27:38;;;;;;;;;;;12.70;95.20;;;;;;5008289;28;19941;-78
2021/10/28 19:33:18;;;;;;;;;;;12.60;95.30;;;;;;5006541;28;19964;-78
2021/10/28 19:36:04;;;;;;;;;;;12.60;95.40;;;;;;4993405;28;20053;-81
2021/10/28 19:48:30;;;;;;;;;;;12.40;95.40;;;;;;4951650;29;19981;-78
2021/10/28 19:51:18;;;;;;;;;;;12.40;95.20;;;;;;5009952;28;19913;-78
2021/10/28 19:54:04;;;;;;;;;;;12.40;94.90;;;;;;5011127;28;19912;-84
2021/10/28 19:56:49;;;;;;;;;;;12.30;94.90;;;;;;5012450;28;19955;-84
2021/10/28 19:59:37;;;;;;;;;;;12.20;94.80;;;;;;5013512;28;20384;-83
2021/10/28 20:05:38;;;;;;;;;;;12.10;95.00;;;;;;5030603;28;19919;-83
2021/10/28 20:14:24;;;;;;;;;;;11.90;95.30;;;;;;5027102;28;19916;-82
2021/10/28 20:20:26;;;;;;;;;;;11.70;95.50;;;;;;5017489;28;20297;-83
2021/10/28 20:23:12;;;;;;;;;;;11.50;95.50;;;;;;5002381;28;19963;-78
2021/10/28 20:25:57;;;;;;;;;;;11.40;95.80;;;;;;4978206;28;20005;-81
2021/10/28 20:28:43;;;;;;;;;;;11.30;96.00;;;;;;4992584;28;19936;-83
2021/10/28 20:31:27;;;;;;;;;;;11.20;96.30;;;;;;4979988;28;20396;-83
2021/10/28 20:34:15;;;;;;;;;;;11.10;96.50;;;;;;4994482;28;19916;-83
2021/10/28 20:37:05;;;;;;;;;;;11.10;96.50;;;;;;5005808;28;19976;-83
2021/10/28 20:39:50;;;;;;;;;;;11.00;96.70;;;;;;4983224;28;19965;-82
2021/10/28 20:42:41;;;;;;;;;;;10.90;96.80;;;;;;4984463;28;19921;-79
2021/10/28 20:45:26;;;;;;;;;;;11.00;96.90;;;;;;4996478;28;20384;-81
2021/10/28 20:48:10;;;;;;;;;;;10.80;97.20;;;;;;4996103;28;19913;-83
2021/10/28 20:50:54;;;;;;;;;;;10.70;97.30;;;;;;4994582;28;19917;-78
2021/10/28 20:53:38;;;;;;;;;;;10.70;97.50;;;;;;4994704;28;19935;-83
2021/10/28 20:56:26;;;;;;;;;;;10.60;97.70;;;;;;5011174;28;19977;-84
2021/10/28 20:59:11;;;;;;;;;;;10.40;98.00;;;;;;5025046;28;20431;-84
2021/10/28 21:01:56;;;;;;;;;;;10.50;98.00;;;;;;5012972;28;19932;-77
2021/10/28 21:04:40;;;;;;;;;;;10.40;98.00;;;;;;5010968;28;19912;-83
2021/10/28 21:07:26;;;;;;;;;;;10.30;98.30;;;;;;5009293;28;19943;-82
2021/10/28 21:10:12;;;;;;;;;;;10.30;98.50;;;;;;5009946;28;19912;-81
2021/10/28 21:12:57;;;;;;;;;;;10.30;98.50;;;;;;5011966;28;19999;-77
2021/10/28 21:15:41;;;;;;;;;;;10.30;98.60;;;;;;5010455;28;20376;-78
2021/10/28 21:18:26;;;;;;;;;;;10.30;98.60;;;;;;5006309;28;20392;-78
2021/10/28 21:21:10;;;;;;;;;;;10.20;98.80;;;;;;5026024;28;19913;-77
2021/10/28 21:23:54;;;;;;;;;;;10.30;99.90;;;;;;5021954;28;19967;-78
2021/10/28 21:26:38;;;;;;;;;;;10.60;99.90;;;;;;5009981;28;19917;-76
2021/10/28 21:29:22;;;;;;;;;;;10.80;99.00;;;;;;5025419;28;19944;-82
2021/10/28 21:32:09;;;;;;;;;;;10.80;99.30;;;;;;5011383;28;19916;-82
2021/10/28 21:34:55;;;;;;;;;;;10.60;98.20;;;;;;5009956;28;20327;-78
2021/10/28 21:37:41;;;;;;;;;;;10.40;98.60;;;;;;5009274;28;19912;-78
2021/10/28 21:40:25;;;;;;;;;;;10.20;99.00;;;;;;5026144;28;19928;-77
2021/10/28 21:43:13;;;;;;;;;;;10.10;99.10;;;;;;5011919;28;19932;-83
2021/10/28 21:45:57;;;;;;;;;;;10.00;99.30;;;;;;5010939;28;20372;-84
2021/10/28 21:48:42;;;;;;;;;;;10.00;99.40;;;;;;5011948;28;19981;-81
2021/10/28 21:51:27;;;;;;;;;;;10.00;99.40;;;;;;5009746;28;19919;-78
2021/10/28 21:57:51;;;;;;;;;;;9.90;99.80;;;;;;5009814;28;19913;-79
2021/10/28 22:27:34;;;;;;;;;;;9.40;99.90;;;;;;5018110;28;19916;-82
2021/10/28 22:30:18;;;;;;;;;;;9.50;99.90;;;;;;4994032;28;19920;-82
2021/10/28 22:33:03;;;;;;;;;;;9.40;99.90;;;;;;5010645;28;19912;-81
2021/10/28 22:35:54;;;;;;;;;;;9.40;99.90;;;;;;5006306;28;20063;-75
2021/10/28 22:38:45;;;;;;;;;;;9.50;99.90;;;;;;5022046;28;20392;-76
2021/10/28 22:41:29;;;;;;;;;;;9.50;99.90;;;;;;5008941;28;19932;-76
2021/10/28 22:44:14;;;;;;;;;;;9.50;99.90;;;;;;5009390;28;19917;-78
2021/10/28 22:46:58;;;;;;;;;;;9.50;99.90;;;;;;5010185;28;19912;-78
2021/10/28 22:49:43;;;;;;;;;;;9.40;99.90;;;;;;4995608;28;19917;-76
2021/10/28 22:52:29;;;;;;;;;;;9.40;99.90;;;;;;5024403;28;19920;-76
2021/10/28 22:55:14;;;;;;;;;;;9.30;99.90;;;;;;4996348;28;19916;-77
2021/10/28 22:58:07;;;;;;;;;;;9.20;99.90;;;;;;5009647;28;19921;-78
2021/10/28 23:06:56;;;;;;;;;;;9.10;99.90;;;;;;5025814;28;19911;-78
2021/10/28 23:10:17;;;;;;;;;;;9.00;99.90;;;;;;5000543;28;19959;-77
2021/10/28 23:21:52;;;;;;;;;;;8.80;99.90;;;;;;5042809;28;20268;-78
2021/10/28 23:24:36;;;;;;;;;;;8.80;99.90;;;;;;5027209;28;19959;-77
2021/10/28 23:27:21;;;;;;;;;;;8.80;99.90;;;;;;5013949;28;19931;-80
2021/10/28 23:30:06;;;;;;;;;;;8.80;99.90;;;;;;5015221;28;19962;-80
2021/10/28 23:32:51;;;;;;;;;;;8.90;99.90;;;;;;5029421;28;19912;-81
2021/10/28 23:35:35;;;;;;;;;;;8.80;99.90;;;;;;5030689;28;19924;-80
2021/10/28 23:38:19;;;;;;;;;;;8.80;99.90;;;;;;5014480;28;19916;-81
2021/10/28 23:41:03;;;;;;;;;;;8.70;99.90;;;;;;5043536;28;19939;-76
2021/10/28 23:43:48;;;;;;;;;;;8.70;99.90;;;;;;5015110;28;20300;-77
2021/10/28 23:46:32;;;;;;;;;;;8.70;99.90;;;;;;5029329;28;19954;-77
2021/10/28 23:49:16;;;;;;;;;;;8.70;99.90;;;;;;5018670;28;19931;-77
2021/10/28 23:52:01;;;;;;;;;;;8.70;99.90;;;;;;5018384;28;19916;-76
2021/10/28 23:54:45;;;;;;;;;;;8.70;99.90;;;;;;5032158;28;20371;-76
2021/10/28 23:57:29;;;;;;;;;;;8.70;99.90;;;;;;5014540;28;19943;-78
